CYZE

Gore Bay Manitoulin Airport

Gore Bay, Ontario, Canada
METAR CYZE 231023Z AUTO 31008KT 9SM -RA SCT016 OVC065 06/05 A2989 RMK SLP129
Observed Flight Rules
Oct-23 @ 10:23 UTC (16 minutes ago) Visual Flight Rules
Wind Visibility Clouds Conditions
310° at 8 knots 9 miles
  • Scattered at 1,600' AGL
  • Overcast at 6,500' AGL
  • Light Rain
Temperatures Readings
Current 6°C / 43°F
Dewpoint 5°C / 41°F
Humidity 93%
Altimeter 29.89" Hg
Pressure 1012.9 hPa
Elevation 193
METAR CYZE 231023Z AUTO 31008KT 9SM -RA SCT016 OVC065 06/05 A2989 RMK SLP129
Observed Flight Rules
Oct-23 @ 10:23 UTC
(16 minutes ago)
VFR
Wind Visibility
310° at 8 knots 9 miles
Clouds
  • Scattered at 1,600' AGL
  • Overcast at 6,500' AGL
Conditions
  • Light Rain
Temperature Dewpoint
6°C / 43°F 5°C / 41°F
Humidity Altimeter Pressure
93% 29.89" Hg 1012.9 hPa